Westdale, New York
Current Conditions -  °F | °C
As of 11:54 PM on Saturday 25 Oct 2014 (Local Time) from KRME Reporting Station
Thunderstorm Thunderstorm  
Wind Chill:   Ceiling: 5500
Heat Index:   Visibility: 3mi
Dew Point:   Wind: 6mph
Humidity: 96%   Direction: 300°WNW
Pressure: 29.54"   Gusts: NA
Location:  43.39°N, 75.82°W
Report Text: KRME 260354Z AUTO 30005KT 3SM -TSRA BR FEW042 SCT049 BKN055 09/08 A2954 RMK AO2 LTG DSNT E AND SW P0000 T00890083
Loading
Personal Weather Stations






























Interactive Weather Map
Tropical Storm Tracking
New forecast layout! Learn more

10-Day Weather Forecast

Advertisements
Track Severe Weather on mobile